sensor_id;sensor_type;location;lat;lon;timestamp;pressure;altitude;pressure_sealevel;temperature;humidity
66681;BME280;53575;51.366;12.350;2023-02-18T00:01:12;100587.41;;;8.27;88.53
66681;BME280;53575;51.366;12.350;2023-02-18T00:03:38;100584.75;;;8.20;88.34
66681;BME280;53575;51.366;12.350;2023-02-18T00:06:12;100583.94;;;8.22;87.60
66681;BME280;53575;51.366;12.350;2023-02-18T00:08:39;100584.69;;;8.12;87.70
66681;BME280;53575;51.366;12.350;2023-02-18T00:11:06;100592.47;;;8.07;88.34
66681;BME280;53575;51.366;12.350;2023-02-18T00:13:31;100586.44;;;8.10;88.88
66681;BME280;53575;51.366;12.350;2023-02-18T00:16:04;100587.25;;;8.01;90.05
66681;BME280;53575;51.366;12.350;2023-02-18T00:18:30;100597.63;;;7.98;90.42
66681;BME280;53575;51.366;12.350;2023-02-18T00:20:56;100597.59;;;7.97;91.34
66681;BME280;53575;51.366;12.350;2023-02-18T00:23:21;100593.25;;;7.94;91.64
66681;BME280;53575;51.366;12.350;2023-02-18T00:25:47;100590.56;;;7.88;92.94
66681;BME280;53575;51.366;12.350;2023-02-18T00:28:12;100589.59;;;7.77;94.25
66681;BME280;53575;51.366;12.350;2023-02-18T00:30:42;100592.28;;;7.85;95.26
66681;BME280;53575;51.366;12.350;2023-02-18T00:33:07;100581.88;;;7.85;95.19
66681;BME280;53575;51.366;12.350;2023-02-18T00:35:33;100585.38;;;7.88;95.31
66681;BME280;53575;51.366;12.350;2023-02-18T00:37:58;100594.06;;;7.92;93.03
66681;BME280;53575;51.366;12.350;2023-02-18T00:40:24;100592.34;;;7.91;91.85
66681;BME280;53575;51.366;12.350;2023-02-18T00:42:50;100591.47;;;7.92;89.97
66681;BME280;53575;51.366;12.350;2023-02-18T00:45:15;100578.47;;;7.90;89.63
66681;BME280;53575;51.366;12.350;2023-02-18T00:47:40;100577.56;;;7.88;88.88
66681;BME280;53575;51.366;12.350;2023-02-18T00:50:07;100586.19;;;7.86;89.31
66681;BME280;53575;51.366;12.350;2023-02-18T00:52:34;100587.13;;;7.91;87.32
66681;BME280;53575;51.366;12.350;2023-02-18T00:55:00;100580.22;;;7.96;86.07
66681;BME280;53575;51.366;12.350;2023-02-18T00:57:25;100589.78;;;7.97;85.58
66681;BME280;53575;51.366;12.350;2023-02-18T00:59:51;100590.72;;;8.03;85.56
66681;BME280;53575;51.366;12.350;2023-02-18T01:02:16;100596.75;;;7.98;85.24
66681;BME280;53575;51.366;12.350;2023-02-18T01:04:42;100599.34;;;7.98;84.66
66681;BME280;53575;51.366;12.350;2023-02-18T01:07:07;100601.94;;;7.99;84.54
66681;BME280;53575;51.366;12.350;2023-02-18T01:09:34;100608.06;;;8.03;84.00
66681;BME280;53575;51.366;12.350;2023-02-18T01:12:00;100596.75;;;7.99;83.64
66681;BME280;53575;51.366;12.350;2023-02-18T01:14:25;100599.34;;;8.01;84.00
66681;BME280;53575;51.366;12.350;2023-02-18T01:16:51;100600.25;;;8.03;83.95
66681;BME280;53575;51.366;12.350;2023-02-18T01:19:16;100597.69;;;8.06;83.51
66681;BME280;53575;51.366;12.350;2023-02-18T01:21:42;100601.16;;;8.06;83.44
66681;BME280;53575;51.366;12.350;2023-02-18T01:24:07;100594.16;;;7.98;83.80
66681;BME280;53575;51.366;12.350;2023-02-18T01:26:33;100607.19;;;8.04;83.52
66681;BME280;53575;51.366;12.350;2023-02-18T01:28:58;100587.28;;;8.07;83.69
66681;BME280;53575;51.366;12.350;2023-02-18T01:31:24;100589.00;;;8.07;83.06
66681;BME280;53575;51.366;12.350;2023-02-18T01:33:49;100594.16;;;7.99;83.36
66681;BME280;53575;51.366;12.350;2023-02-18T01:36:16;100594.22;;;8.05;83.07
66681;BME280;53575;51.366;12.350;2023-02-18T01:38:42;100601.13;;;8.02;83.05
66681;BME280;53575;51.366;12.350;2023-02-18T01:41:08;100596.81;;;8.05;82.19
66681;BME280;53575;51.366;12.350;2023-02-18T01:43:34;100583.78;;;8.04;82.33
66681;BME280;53575;51.366;12.350;2023-02-18T01:46:14;100593.28;;;8.00;81.62
66681;BME280;53575;51.366;12.350;2023-02-18T01:48:45;100604.56;;;7.98;81.80
66681;BME280;53575;51.366;12.350;2023-02-18T01:51:22;100607.16;;;7.99;81.29
66681;BME280;53575;51.366;12.350;2023-02-18T01:54:12;100605.44;;;7.98;81.42
66681;BME280;53575;51.366;12.350;2023-02-18T01:56:49;100603.66;;;7.96;81.78
66681;BME280;53575;51.366;12.350;2023-02-18T01:59:20;100602.84;;;8.01;81.61
66681;BME280;53575;51.366;12.350;2023-02-18T02:01:48;100608.94;;;8.05;80.84
66681;BME280;53575;51.366;12.350;2023-02-18T02:04:13;100610.59;;;7.95;81.27
66681;BME280;53575;51.366;12.350;2023-02-18T02:06:39;100615.84;;;7.98;81.08
66681;BME280;53575;51.366;12.350;2023-02-18T02:09:07;100615.03;;;8.05;80.73
66681;BME280;53575;51.366;12.350;2023-02-18T02:11:44;100621.09;;;8.07;80.25
66681;BME280;53575;51.366;12.350;2023-02-18T02:34:33;100603.03;;;8.21;81.43
66681;BME280;53575;51.366;12.350;2023-02-18T02:42:38;100610.03;;;8.31;81.24
66681;BME280;53575;51.366;12.350;2023-02-18T02:45:31;100597.91;;;8.34;81.50
66681;BME280;53575;51.366;12.350;2023-02-18T02:48:24;100604.81;;;8.31;81.60
66681;BME280;53575;51.366;12.350;2023-02-18T02:51:53;100596.19;;;8.36;81.47
66681;BME280;53575;51.366;12.350;2023-02-18T02:54:20;100588.41;;;8.37;80.94
66681;BME280;53575;51.366;12.350;2023-02-18T02:56:46;100588.31;;;8.31;81.67
66681;BME280;53575;51.366;12.350;2023-02-18T02:59:15;100593.56;;;8.33;81.48
66681;BME280;53575;51.366;12.350;2023-02-18T03:02:43;100573.56;;;8.30;81.66
66681;BME280;53575;51.366;12.350;2023-02-18T03:05:09;100579.66;;;8.34;81.20
66681;BME280;53575;51.366;12.350;2023-02-18T03:13:38;100582.38;;;8.40;80.59
66681;BME280;53575;51.366;12.350;2023-02-18T03:16:34;100581.41;;;8.33;80.42
66681;BME280;53575;51.366;12.350;2023-02-18T03:21:46;100574.50;;;8.37;80.25
66681;BME280;53575;51.366;12.350;2023-02-18T03:24:33;100571.03;;;8.36;80.52
66681;BME280;53575;51.366;12.350;2023-02-18T03:27:15;100586.66;;;8.39;80.54
66681;BME280;53575;51.366;12.350;2023-02-18T03:29:44;100584.06;;;8.39;80.60
66681;BME280;53575;51.366;12.350;2023-02-18T03:32:12;100583.19;;;8.39;79.87
66681;BME280;53575;51.366;12.350;2023-02-18T03:34:43;100579.72;;;8.38;79.90
66681;BME280;53575;51.366;12.350;2023-02-18T03:37:11;100573.66;;;8.39;79.90
66681;BME280;53575;51.366;12.350;2023-02-18T03:39:40;100564.97;;;8.37;80.18
66681;BME280;53575;51.366;12.350;2023-02-18T03:42:08;100565.75;;;8.31;80.26
66681;BME280;53575;51.366;12.350;2023-02-18T03:44:33;100568.38;;;8.35;80.73
66681;BME280;53575;51.366;12.350;2023-02-18T03:46:59;100573.59;;;8.33;80.51
66681;BME280;53575;51.366;12.350;2023-02-18T03:49:24;100571.84;;;8.30;80.63
66681;BME280;53575;51.366;12.350;2023-02-18T03:51:50;100565.69;;;8.21;81.49
66681;BME280;53575;51.366;12.350;2023-02-18T03:54:15;100570.00;;;8.20;81.37
66681;BME280;53575;51.366;12.350;2023-02-18T03:56:41;100566.56;;;8.23;81.16
66681;BME280;53575;51.366;12.350;2023-02-18T03:59:07;100560.53;;;8.27;81.19
66681;BME280;53575;51.366;12.350;2023-02-18T04:01:32;100552.63;;;8.16;81.81
66681;BME280;53575;51.366;12.350;2023-02-18T04:03:57;100552.66;;;8.19;81.50
66681;BME280;53575;51.366;12.350;2023-02-18T04:06:23;100553.47;;;8.12;81.92
66681;BME280;53575;51.366;12.350;2023-02-18T04:08:49;100555.22;;;8.15;82.08
66681;BME280;53575;51.366;12.350;2023-02-18T04:11:14;100552.50;;;7.98;83.04
66681;BME280;53575;51.366;12.350;2023-02-18T04:13:40;100549.06;;;8.02;83.38
66681;BME280;53575;51.366;12.350;2023-02-18T04:16:06;100550.75;;;7.97;83.83
66681;BME280;53575;51.366;12.350;2023-02-18T04:18:31;100549.94;;;8.04;83.98
66681;BME280;53575;51.366;12.350;2023-02-18T04:20:57;100552.50;;;7.98;84.23
66681;BME280;53575;51.366;12.350;2023-02-18T04:23:22;100570.78;;;8.05;84.21
66681;BME280;53575;51.366;12.350;2023-02-18T04:25:48;100565.53;;;7.98;84.71
66681;BME280;53575;51.366;12.350;2023-02-18T04:28:14;100565.53;;;7.98;84.72
66681;BME280;53575;51.366;12.350;2023-02-18T04:30:42;100570.75;;;8.04;85.10
66681;BME280;53575;51.366;12.350;2023-02-18T04:33:07;100572.47;;;8.00;85.30
66681;BME280;53575;51.366;12.350;2023-02-18T04:35:33;100573.31;;;7.98;85.67
66681;BME280;53575;51.366;12.350;2023-02-18T04:37:58;100558.50;;;7.91;86.74
66681;BME280;53575;51.366;12.350;2023-02-18T04:40:24;100554.19;;;7.93;87.03
66681;BME280;53575;51.366;12.350;2023-02-18T04:42:53;100556.81;;;7.97;87.52
66681;BME280;53575;51.366;12.350;2023-02-18T04:45:19;100551.66;;;7.99;87.88
66681;BME280;53575;51.366;12.350;2023-02-18T04:47:44;100554.25;;;7.99;88.88
66681;BME280;53575;51.366;12.350;2023-02-18T04:50:10;100549.88;;;7.96;89.69
66681;BME280;53575;51.366;12.350;2023-02-18T04:52:35;100543.88;;;8.03;90.43
66681;BME280;53575;51.366;12.350;2023-02-18T04:55:00;100532.50;;;7.92;92.07
66681;BME280;53575;51.366;12.350;2023-02-18T04:57:26;100527.28;;;7.92;92.97
66681;BME280;53575;51.366;12.350;2023-02-18T04:59:51;100520.34;;;7.91;94.44
66681;BME280;53575;51.366;12.350;2023-02-18T05:02:17;100520.38;;;7.94;94.96
66681;BME280;53575;51.366;12.350;2023-02-18T05:04:42;100516.84;;;7.86;96.49
66681;BME280;53575;51.366;12.350;2023-02-18T05:07:07;100510.78;;;7.89;97.34
66681;BME280;53575;51.366;12.350;2023-02-18T05:09:33;100510.75;;;7.82;98.55
66681;BME280;53575;51.366;12.350;2023-02-18T05:11:58;100504.78;;;7.94;99.47
66681;BME280;53575;51.366;12.350;2023-02-18T05:14:24;100496.09;;;7.94;100.00
66681;BME280;53575;51.366;12.350;2023-02-18T05:16:49;100494.34;;;7.91;100.00
66681;BME280;53575;51.366;12.350;2023-02-18T05:19:15;100491.75;;;7.96;100.00
66681;BME280;53575;51.366;12.350;2023-02-18T05:21:41;100483.09;;;7.95;100.00
66681;BME280;53575;51.366;12.350;2023-02-18T05:24:07;100488.28;;;7.94;100.00
66681;BME280;53575;51.366;12.350;2023-02-18T05:26:33;100483.06;;;7.92;100.00
66681;BME280;53575;51.366;12.350;2023-02-18T05:28:58;100473.50;;;7.88;100.00
66681;BME280;53575;51.366;12.350;2023-02-18T05:31:24;100466.63;;;8.01;100.00
66681;BME280;53575;51.366;12.350;2023-02-18T05:33:49;100453.63;;;7.99;100.00
66681;BME280;53575;51.366;12.350;2023-02-18T05:36:15;100447.47;;;7.90;100.00
66681;BME280;53575;51.366;12.350;2023-02-18T05:38:40;100453.59;;;7.95;100.00
66681;BME280;53575;51.366;12.350;2023-02-18T05:41:06;100451.88;;;7.98;100.00
66681;BME280;53575;51.366;12.350;2023-02-18T05:43:31;100444.94;;;7.99;100.00
66681;BME280;53575;51.366;12.350;2023-02-18T05:46:17;100439.72;;;7.94;100.00
66681;BME280;53575;51.366;12.350;2023-02-18T05:48:42;100443.22;;;7.98;100.00
66681;BME280;53575;51.366;12.350;2023-02-18T05:51:07;100444.06;;;7.95;100.00
66681;BME280;53575;51.366;12.350;2023-02-18T05:53:33;100436.28;;;8.00;100.00
66681;BME280;53575;51.366;12.350;2023-02-18T05:55:58;100437.16;;;8.02;100.00
66681;BME280;53575;51.366;12.350;2023-02-18T05:58:24;100443.31;;;8.13;100.00
66681;BME280;53575;51.366;12.350;2023-02-18T06:00:49;100444.16;;;8.11;100.00
66681;BME280;53575;51.366;12.350;2023-02-18T06:03:15;100438.94;;;8.11;100.00
66681;BME280;53575;51.366;12.350;2023-02-18T06:05:40;100437.22;;;8.14;100.00
66681;BME280;53575;51.366;12.350;2023-02-18T06:08:05;100439.81;;;8.16;100.00
66681;BME280;53575;51.366;12.350;2023-02-18T06:10:31;100447.66;;;8.17;100.00
66681;BME280;53575;51.366;12.350;2023-02-18T06:12:56;100439.84;;;8.17;100.00
66681;BME280;53575;51.366;12.350;2023-02-18T06:15:22;100439.78;;;8.08;100.00
66681;BME280;53575;51.366;12.350;2023-02-18T06:17:47;100429.34;;;8.02;100.00
66681;BME280;53575;51.366;12.350;2023-02-18T06:20:12;100429.34;;;8.00;100.00
66681;BME280;53575;51.366;12.350;2023-02-18T06:22:38;100436.28;;;8.03;100.00
66681;BME280;53575;51.366;12.350;2023-02-18T06:25:03;100418.91;;;7.96;100.00
66681;BME280;53575;51.366;12.350;2023-02-18T06:27:29;100430.22;;;8.02;100.00
66681;BME280;53575;51.366;12.350;2023-02-18T06:29:54;100426.72;;;7.96;100.00
66681;BME280;53575;51.366;12.350;2023-02-18T06:32:20;100415.47;;;7.98;100.00
66681;BME280;53575;51.366;12.350;2023-02-18T06:34:45;100423.22;;;7.92;100.00
66681;BME280;53575;51.366;12.350;2023-02-18T06:37:10;100415.44;;;7.94;100.00
66681;BME280;53575;51.366;12.350;2023-02-18T06:39:37;100416.31;;;7.99;100.00
66681;BME280;53575;51.366;12.350;2023-02-18T06:42:03;100393.72;;;7.92;100.00
66681;BME280;53575;51.366;12.350;2023-02-18T06:44:28;100409.31;;;7.89;100.00
66681;BME280;53575;51.366;12.350;2023-02-18T06:46:54;100391.13;;;7.92;100.00
66681;BME280;53575;51.366;12.350;2023-02-18T06:49:19;100397.22;;;7.97;100.00
66681;BME280;53575;51.366;12.350;2023-02-18T06:51:44;100384.22;;;7.94;100.00
66681;BME280;53575;51.366;12.350;2023-02-18T06:54:10;100375.56;;;7.98;100.00
66681;BME280;53575;51.366;12.350;2023-02-18T06:56:35;100394.63;;;8.00;100.00
66681;BME280;53575;51.366;12.350;2023-02-18T06:59:01;100379.06;;;8.01;100.00
66681;BME280;53575;51.366;12.350;2023-02-18T07:01:26;100367.75;;;8.01;100.00
66681;BME280;53575;51.366;12.350;2023-02-18T07:03:52;100369.50;;;8.08;100.00
66681;BME280;53575;51.366;12.350;2023-02-18T07:06:17;100362.53;;;7.96;100.00
66681;BME280;53575;51.366;12.350;2023-02-18T07:08:42;100359.94;;;8.01;100.00
66681;BME280;53575;51.366;12.350;2023-02-18T07:11:08;100341.75;;;8.05;100.00
66681;BME280;53575;51.366;12.350;2023-02-18T07:13:33;100338.31;;;8.11;100.00
66681;BME280;53575;51.366;12.350;2023-02-18T07:15:59;100329.59;;;8.04;100.00
66681;BME280;53575;51.366;12.350;2023-02-18T07:18:24;100333.97;;;8.16;100.00
66681;BME280;53575;51.366;12.350;2023-02-18T07:20:50;100323.56;;;8.10;100.00
66681;BME280;53575;51.366;12.350;2023-02-18T07:23:15;100334.00;;;8.19;100.00
66681;BME280;53575;51.366;12.350;2023-02-18T07:25:41;100332.28;;;8.21;100.00
66681;BME280;53575;51.366;12.350;2023-02-18T07:28:06;100329.69;;;8.27;100.00
66681;BME280;53575;51.366;12.350;2023-02-18T07:30:32;100323.63;;;8.35;100.00
66681;BME280;53575;51.366;12.350;2023-02-18T07:32:57;100326.28;;;8.39;100.00
66681;BME280;53575;51.366;12.350;2023-02-18T07:35:22;100317.59;;;8.37;100.00
66681;BME280;53575;51.366;12.350;2023-02-18T07:37:49;100315.84;;;8.39;100.00
66681;BME280;53575;51.366;12.350;2023-02-18T07:40:17;100312.41;;;8.37;100.00
66681;BME280;53575;51.366;12.350;2023-02-18T07:42:44;100315.88;;;8.47;100.00
66681;BME280;53575;51.366;12.350;2023-02-18T07:45:10;100305.50;;;8.53;100.00
66681;BME280;53575;51.366;12.350;2023-02-18T07:47:36;100284.69;;;8.64;100.00
66681;BME280;53575;51.366;12.350;2023-02-18T07:50:03;100285.53;;;8.60;100.00
66681;BME280;53575;51.366;12.350;2023-02-18T07:52:37;100273.41;;;8.78;100.00
66681;BME280;53575;51.366;12.350;2023-02-18T07:55:03;100282.06;;;8.81;100.00
66681;BME280;53575;51.366;12.350;2023-02-18T07:57:28;100289.03;;;8.82;100.00
66681;BME280;53575;51.366;12.350;2023-02-18T07:59:54;100281.22;;;8.86;100.00
66681;BME280;53575;51.366;12.350;2023-02-18T08:02:22;100276.03;;;8.97;100.00
66681;BME280;53575;51.366;12.350;2023-02-18T08:04:47;100276.88;;;8.99;100.00
66681;BME280;53575;51.366;12.350;2023-02-18T08:07:14;100281.22;;;9.06;100.00
66681;BME280;53575;51.366;12.350;2023-02-18T08:09:40;100272.53;;;9.13;100.00
66681;BME280;53575;51.366;12.350;2023-02-18T08:12:06;100271.66;;;9.13;100.00
66681;BME280;53575;51.366;12.350;2023-02-18T08:14:31;100274.25;;;9.23;100.00
66681;BME280;53575;51.366;12.350;2023-02-18T08:16:57;100263.84;;;9.16;100.00
66681;BME280;53575;51.366;12.350;2023-02-18T08:19:23;100264.69;;;9.21;100.00
66681;BME280;53575;51.366;12.350;2023-02-18T08:21:48;100249.91;;;9.26;100.00
66681;BME280;53575;51.366;12.350;2023-02-18T08:24:14;100253.34;;;9.34;100.00
66681;BME280;53575;51.366;12.350;2023-02-18T08:26:39;100237.69;;;9.45;100.00
66681;BME280;53575;51.366;12.350;2023-02-18T08:29:05;100244.59;;;9.53;100.00
66681;BME280;53575;51.366;12.350;2023-02-18T08:31:31;100245.47;;;9.60;100.00
66681;BME280;53575;51.366;12.350;2023-02-18T08:33:57;100252.41;;;9.61;100.00
66681;BME280;53575;51.366;12.350;2023-02-18T08:36:24;100248.91;;;9.65;100.00
66681;BME280;53575;51.366;12.350;2023-02-18T08:38:50;100243.72;;;9.67;100.00
66681;BME280;53575;51.366;12.350;2023-02-18T08:41:16;100240.19;;;9.77;100.00
66681;BME280;53575;51.366;12.350;2023-02-18T08:43:45;100255.81;;;9.85;100.00
66681;BME280;53575;51.366;12.350;2023-02-18T08:46:12;100242.75;;;9.92;100.00
66681;BME280;53575;51.366;12.350;2023-02-18T08:48:38;100227.03;;;9.95;100.00
66681;BME280;53575;51.366;12.350;2023-02-18T08:51:11;100235.75;;;9.94;100.00
66681;BME280;53575;51.366;12.350;2023-02-18T08:53:37;100223.53;;;10.02;100.00
66681;BME280;53575;51.366;12.350;2023-02-18T08:56:08;100224.34;;;10.11;100.00
66681;BME280;53575;51.366;12.350;2023-02-18T08:58:34;100226.97;;;10.12;100.00
66681;BME280;53575;51.366;12.350;2023-02-18T09:01:03;100223.50;;;10.12;100.00
66681;BME280;53575;51.366;12.350;2023-02-18T09:03:28;100220.88;;;10.13;100.00
66681;BME280;53575;51.366;12.350;2023-02-18T09:05:55;100206.91;;;10.14;100.00
66681;BME280;53575;51.366;12.350;2023-02-18T09:08:21;100205.19;;;10.16;100.00
66681;BME280;53575;51.366;12.350;2023-02-18T09:10:46;100209.53;;;10.17;100.00
66681;BME280;53575;51.366;12.350;2023-02-18T09:13:11;100197.38;;;10.12;100.00
66681;BME280;53575;51.366;12.350;2023-02-18T09:15:37;100207.81;;;10.10;100.00
66681;BME280;53575;51.366;12.350;2023-02-18T09:18:02;100209.59;;;10.08;100.00
66681;BME280;53575;51.366;12.350;2023-02-18T09:20:28;100206.09;;;10.12;100.00
66681;BME280;53575;51.366;12.350;2023-02-18T09:22:53;100207.78;;;10.15;100.00
66681;BME280;53575;51.366;12.350;2023-02-18T09:25:19;100194.72;;;10.18;100.00
66681;BME280;53575;51.366;12.350;2023-02-18T09:27:44;100187.72;;;10.24;100.00
66681;BME280;53575;51.366;12.350;2023-02-18T09:30:10;100187.72;;;10.31;100.00
66681;BME280;53575;51.366;12.350;2023-02-18T09:32:36;100184.22;;;10.32;100.00
66681;BME280;53575;51.366;12.350;2023-02-18T09:35:03;100184.13;;;10.44;100.00
66681;BME280;53575;51.366;12.350;2023-02-18T09:37:29;100165.81;;;10.50;100.00
66681;BME280;53575;51.366;12.350;2023-02-18T09:39:55;100170.97;;;10.58;100.00
66681;BME280;53575;51.366;12.350;2023-02-18T09:42:26;100163.06;;;10.64;100.00
66681;BME280;53575;51.366;12.350;2023-02-18T09:44:55;100162.16;;;10.69;100.00
66681;BME280;53575;51.366;12.350;2023-02-18T09:47:35;100166.44;;;10.77;100.00
66681;BME280;53575;51.366;12.350;2023-02-18T09:50:10;100133.22;;;10.88;100.00
66681;BME280;53575;51.366;12.350;2023-02-18T09:52:38;100131.38;;;10.99;99.60
66681;BME280;53575;51.366;12.350;2023-02-18T09:57:48;100120.63;;;11.23;97.48
66681;BME280;53575;51.366;12.350;2023-02-18T10:00:30;100123.19;;;11.27;97.29
66681;BME280;53575;51.366;12.350;2023-02-18T10:02:58;100116.22;;;11.27;96.99
66681;BME280;53575;51.366;12.350;2023-02-18T10:05:26;100114.41;;;11.34;96.54
66681;BME280;53575;51.366;12.350;2023-02-18T10:07:55;100116.94;;;11.38;95.48
66681;BME280;53575;51.366;12.350;2023-02-18T10:10:43;100103.72;;;11.47;95.01
66681;BME280;53575;51.366;12.350;2023-02-18T10:13:12;100110.72;;;11.49;95.52
66681;BME280;53575;51.366;12.350;2023-02-18T10:15:45;100111.44;;;11.58;94.76
66681;BME280;53575;51.366;12.350;2023-02-18T10:18:21;100122.69;;;11.66;93.17
66681;BME280;53575;51.366;12.350;2023-02-18T10:20:51;100105.88;;;11.81;92.90
66681;BME280;53575;51.366;12.350;2023-02-18T10:23:19;100086.53;;;11.93;92.39
66681;BME280;53575;51.366;12.350;2023-02-18T10:25:45;100085.47;;;12.06;92.40
66681;BME280;53575;51.366;12.350;2023-02-18T10:28:13;100076.72;;;12.07;91.60
66681;BME280;53575;51.366;12.350;2023-02-18T10:30:42;100132.66;;;12.03;91.20
66681;BME280;53575;51.366;12.350;2023-02-18T10:35:52;100061.84;;;12.09;91.12
66681;BME280;53575;51.366;12.350;2023-02-18T10:38:43;100067.16;;;12.06;90.47
66681;BME280;53575;51.366;12.350;2023-02-18T10:41:26;100059.28;;;12.06;90.43
66681;BME280;53575;51.366;12.350;2023-02-18T10:46:31;100118.75;;;12.00;89.97
66681;BME280;53575;51.366;12.350;2023-02-18T10:51:50;100051.34;;;12.11;88.72
66681;BME280;53575;51.366;12.350;2023-02-18T10:54:17;100052.22;;;12.11;88.86
66681;BME280;53575;51.366;12.350;2023-02-18T10:56:49;100076.69;;;12.10;88.50
66681;BME280;53575;51.366;12.350;2023-02-18T10:59:25;100083.81;;;12.01;89.08
66681;BME280;53575;51.366;12.350;2023-02-18T11:02:15;100088.22;;;11.99;89.42
66681;BME280;53575;51.366;12.350;2023-02-18T11:04:43;100068.06;;;12.04;88.65
66681;BME280;53575;51.366;12.350;2023-02-18T11:07:18;100075.88;;;12.05;87.95
66681;BME280;53575;51.366;12.350;2023-02-18T11:09:47;100057.63;;;12.02;87.64
66681;BME280;53575;51.366;12.350;2023-02-18T11:12:20;100062.03;;;11.99;87.72
66681;BME280;53575;51.366;12.350;2023-02-18T11:14:48;100056.84;;;11.94;87.82
66681;BME280;53575;51.366;12.350;2023-02-18T11:17:36;100054.19;;;11.99;87.71
66681;BME280;53575;51.366;12.350;2023-02-18T11:22:44;100047.38;;;11.85;87.62
66681;BME280;53575;51.366;12.350;2023-02-18T11:25:25;100051.75;;;11.85;87.92
66681;BME280;53575;51.366;12.350;2023-02-18T11:27:55;100044.81;;;11.81;88.28
66681;BME280;53575;51.366;12.350;2023-02-18T11:30:34;100072.75;;;11.79;87.98
66681;BME280;53575;51.366;12.350;2023-02-18T11:33:23;100031.69;;;11.82;87.66
66681;BME280;53575;51.366;12.350;2023-02-18T11:35:53;100045.69;;;11.81;86.97
66681;BME280;53575;51.366;12.350;2023-02-18T11:38:34;100027.44;;;11.75;86.89
66681;BME280;53575;51.366;12.350;2023-02-18T11:41:13;100009.09;;;11.75;87.02
66681;BME280;53575;51.366;12.350;2023-02-18T11:43:41;100026.69;;;11.68;86.48
66681;BME280;53575;51.366;12.350;2023-02-18T11:46:09;100010.97;;;11.67;86.70
66681;BME280;53575;51.366;12.350;2023-02-18T11:48:34;100020.59;;;11.66;86.84
66681;BME280;53575;51.366;12.350;2023-02-18T11:51:01;100000.50;;;11.68;86.95
66681;BME280;53575;51.366;12.350;2023-02-18T11:53:28;100039.03;;;11.59;87.22
66681;BME280;53575;51.366;12.350;2023-02-18T11:55:57;99990.28;;;11.53;87.76
66681;BME280;53575;51.366;12.350;2023-02-18T11:58:23;100002.47;;;11.54;86.58
66681;BME280;53575;51.366;12.350;2023-02-18T12:00:50;100006.84;;;11.52;86.18
66681;BME280;53575;51.366;12.350;2023-02-18T12:05:53;99991.75;;;11.69;84.62
66681;BME280;53575;51.366;12.350;2023-02-18T12:08:23;99997.69;;;11.84;83.28
66681;BME280;53575;51.366;12.350;2023-02-18T12:10:53;100009.66;;;11.97;83.17
66681;BME280;53575;51.366;12.350;2023-02-18T12:13:34;99989.38;;;12.10;81.95
66681;BME280;53575;51.366;12.350;2023-02-18T12:21:48;99979.19;;;11.93;81.13
66681;BME280;53575;51.366;12.350;2023-02-18T12:32:53;99975.72;;;11.92;80.54
66681;BME280;53575;51.366;12.350;2023-02-18T13:00:02;99977.56;;;11.87;81.67
66681;BME280;53575;51.366;12.350;2023-02-18T13:02:57;99963.63;;;11.82;80.64
66681;BME280;53575;51.366;12.350;2023-02-18T13:13:33;99967.97;;;11.85;78.99
66681;BME280;53575;51.366;12.350;2023-02-18T13:16:19;99982.06;;;11.76;78.93
66681;BME280;53575;51.366;12.350;2023-02-18T13:21:21;99974.22;;;11.76;79.40
66681;BME280;53575;51.366;12.350;2023-02-18T13:24:03;99971.72;;;11.67;79.98
66681;BME280;53575;51.366;12.350;2023-02-18T13:26:31;99959.41;;;11.74;78.23
66681;BME280;53575;51.366;12.350;2023-02-18T13:31:37;99968.97;;;11.75;77.10
66681;BME280;53575;51.366;12.350;2023-02-18T13:34:16;99972.47;;;11.77;76.72
66681;BME280;53575;51.366;12.350;2023-02-18T13:37:00;99966.19;;;11.88;75.86
66681;BME280;53575;51.366;12.350;2023-02-18T13:39:29;99992.97;;;12.06;75.06
66681;BME280;53575;51.366;12.350;2023-02-18T13:52:48;99976.31;;;12.08;73.70
66681;BME280;53575;51.366;12.350;2023-02-18T13:55:38;99976.22;;;12.14;74.22
66681;BME280;53575;51.366;12.350;2023-02-18T13:58:13;100012.06;;;12.11;73.75
66681;BME280;53575;51.366;12.350;2023-02-18T14:00:46;100003.47;;;12.03;74.03
66681;BME280;53575;51.366;12.350;2023-02-18T14:03:32;100027.00;;;12.04;74.22
66681;BME280;53575;51.366;12.350;2023-02-18T14:06:00;99984.44;;;11.93;74.25
66681;BME280;53575;51.366;12.350;2023-02-18T14:08:33;100007.31;;;11.80;74.99
66681;BME280;53575;51.366;12.350;2023-02-18T14:11:31;99996.22;;;11.63;76.25
66681;BME280;53575;51.366;12.350;2023-02-18T14:16:23;100022.66;;;11.44;77.43
66681;BME280;53575;51.366;12.350;2023-02-18T14:18:59;100034.88;;;11.44;77.62
66681;BME280;53575;51.366;12.350;2023-02-18T14:21:40;100026.28;;;11.36;78.39
66681;BME280;53575;51.366;12.350;2023-02-18T14:24:09;100042.13;;;11.27;78.68
66681;BME280;53575;51.366;12.350;2023-02-18T14:26:43;100037.66;;;11.32;78.48
66681;BME280;53575;51.366;12.350;2023-02-18T14:29:13;100028.06;;;11.34;78.98
66681;BME280;53575;51.366;12.350;2023-02-18T14:31:43;100007.03;;;11.41;78.72
66681;BME280;53575;51.366;12.350;2023-02-18T14:42:26;100006.72;;;11.60;78.12
66681;BME280;53575;51.366;12.350;2023-02-18T14:45:32;100002.03;;;11.82;77.90
66681;BME280;53575;51.366;12.350;2023-02-18T14:50:47;100016.75;;;11.92;77.71
66681;BME280;53575;51.366;12.350;2023-02-18T14:53:17;100028.94;;;11.94;77.68
66681;BME280;53575;51.366;12.350;2023-02-18T14:55:46;100023.88;;;11.84;78.69
66681;BME280;53575;51.366;12.350;2023-02-18T14:58:27;100058.25;;;11.58;79.60
66681;BME280;53575;51.366;12.350;2023-02-18T15:00:54;100073.25;;;11.43;80.42